createdAt,value
2023-03-26T00:01:21.588Z,9.43
2023-03-26T00:03:53.415Z,8.52
2023-03-26T00:06:22.573Z,9.95
2023-03-26T00:08:50.006Z,10.20
2023-03-26T00:11:17.099Z,10.60
2023-03-26T00:13:46.744Z,7.43
2023-03-26T00:16:14.309Z,8.48
2023-03-26T00:18:42.528Z,11.73
2023-03-26T00:21:10.548Z,8.38
2023-03-26T00:23:38.666Z,9.02
2023-03-26T00:26:10.416Z,9.18
2023-03-26T00:28:38.218Z,6.75
2023-03-26T00:31:05.684Z,8.10
2023-03-26T00:36:02.475Z,8.90
2023-03-26T00:38:30.950Z,6.55
2023-03-26T00:40:59.492Z,8.80
2023-03-26T00:43:26.576Z,11.55
2023-03-26T00:45:54.279Z,13.27
2023-03-26T00:48:31.366Z,9.15
2023-03-26T00:51:05.561Z,9.48
2023-03-26T00:56:00.461Z,10.52
2023-03-26T00:58:27.283Z,11.30
2023-03-26T01:00:57.772Z,11.45
2023-03-26T01:03:29.427Z,9.95
2023-03-26T01:06:02.659Z,11.98
2023-03-26T01:08:30.628Z,9.80
2023-03-26T01:11:03.023Z,8.40
2023-03-26T01:13:32.021Z,10.20
2023-03-26T01:16:01.861Z,9.48
2023-03-26T01:18:33.922Z,9.88
2023-03-26T01:21:05.389Z,12.32
2023-03-26T01:23:40.475Z,16.40
2023-03-26T01:26:27.290Z,11.77
2023-03-26T01:28:55.940Z,11.70
2023-03-26T01:31:36.965Z,12.77
2023-03-26T01:34:12.424Z,13.10
2023-03-26T01:36:48.941Z,13.52
2023-03-26T01:39:19.681Z,11.15
2023-03-26T01:41:50.113Z,13.55
2023-03-26T01:44:25.875Z,10.65
2023-03-26T01:46:52.940Z,9.48
2023-03-26T01:49:19.652Z,12.57
2023-03-26T01:51:47.655Z,15.77
2023-03-26T01:54:16.921Z,10.30
2023-03-26T01:56:43.330Z,10.27
2023-03-26T01:59:16.606Z,12.30
2023-03-26T02:02:04.693Z,13.07
2023-03-26T02:04:41.028Z,13.75
2023-03-26T02:07:11.565Z,14.40
2023-03-26T02:09:42.444Z,11.75
2023-03-26T02:12:09.564Z,11.18
2023-03-26T02:14:36.215Z,13.88
2023-03-26T02:17:02.777Z,13.45
2023-03-26T02:19:29.891Z,13.02
2023-03-26T02:21:59.759Z,14.77
2023-03-26T02:24:27.544Z,14.05
2023-03-26T02:26:58.043Z,15.48
2023-03-26T02:29:26.645Z,18.27
2023-03-26T02:31:53.740Z,12.32
2023-03-26T02:34:20.344Z,17.13
2023-03-26T02:36:52.265Z,18.10
2023-03-26T02:39:19.010Z,13.85
2023-03-26T02:41:53.614Z,16.77
2023-03-26T02:44:20.569Z,16.85
2023-03-26T02:46:59.037Z,16.75
2023-03-26T02:49:51.414Z,18.30
2023-03-26T02:52:27.082Z,13.13
2023-03-26T02:54:56.402Z,13.63
2023-03-26T02:57:24.817Z,14.75
2023-03-26T03:00:13.176Z,19.50
2023-03-26T03:02:47.815Z,16.17
2023-03-26T03:05:31.488Z,13.85
2023-03-26T03:08:19.763Z,12.63
2023-03-26T03:11:00.941Z,14.13
2023-03-26T03:13:38.229Z,14.43
2023-03-26T03:16:04.795Z,16.35
2023-03-26T03:18:31.259Z,13.68
2023-03-26T03:20:57.756Z,17.38
2023-03-26T03:23:24.349Z,16.73
2023-03-26T03:25:57.373Z,12.70
2023-03-26T03:28:25.114Z,16.77
2023-03-26T03:30:53.238Z,15.82
2023-03-26T03:33:28.407Z,14.48
2023-03-26T03:35:55.016Z,14.85
2023-03-26T03:40:51.078Z,17.92
2023-03-26T03:46:01.179Z,17.63
2023-03-26T03:48:41.481Z,16.55
2023-03-26T03:51:08.528Z,17.55
2023-03-26T03:53:56.637Z,16.90
2023-03-26T03:56:55.163Z,16.85
2023-03-26T03:59:49.167Z,16.08
2023-03-26T04:02:34.718Z,15.77
2023-03-26T04:05:05.529Z,12.07
2023-03-26T04:07:32.678Z,13.50
2023-03-26T04:10:05.915Z,16.58
2023-03-26T04:12:58.376Z,15.18
2023-03-26T04:15:44.465Z,13.65
2023-03-26T04:18:11.745Z,14.13
2023-03-26T04:20:46.273Z,15.48
2023-03-26T04:23:18.199Z,16.17
2023-03-26T04:25:50.139Z,18.83
2023-03-26T04:28:28.373Z,13.18
2023-03-26T04:31:17.727Z,20.20
2023-03-26T04:33:46.802Z,16.00
2023-03-26T04:36:16.558Z,17.17
2023-03-26T04:41:14.384Z,13.93
2023-03-26T04:43:53.959Z,14.75
2023-03-26T04:46:43.597Z,13.10
2023-03-26T04:49:17.417Z,14.98
2023-03-26T04:51:46.213Z,13.13
2023-03-26T04:54:32.553Z,12.32
2023-03-26T04:57:04.898Z,13.45
2023-03-26T04:59:51.785Z,13.05
2023-03-26T05:02:18.879Z,15.43
2023-03-26T05:04:51.472Z,15.90
2023-03-26T05:09:48.588Z,12.95
2023-03-26T05:15:03.595Z,14.43
2023-03-26T05:17:55.426Z,12.88
2023-03-26T05:20:29.573Z,11.48
2023-03-26T05:22:56.389Z,13.27
2023-03-26T05:25:28.895Z,13.48
2023-03-26T05:30:26.664Z,11.75
2023-03-26T05:32:57.958Z,13.30
2023-03-26T05:35:29.966Z,12.63
2023-03-26T05:37:57.384Z,13.52
2023-03-26T05:40:25.298Z,15.23
2023-03-26T05:43:00.108Z,13.18
2023-03-26T05:45:35.183Z,11.65
2023-03-26T05:48:14.267Z,15.50
2023-03-26T05:50:40.917Z,14.95
2023-03-26T05:53:07.595Z,12.07
2023-03-26T05:55:58.506Z,13.68
2023-03-26T05:58:43.616Z,12.80
2023-03-26T06:01:29.324Z,13.43
2023-03-26T06:04:16.985Z,11.45
2023-03-26T06:07:12.519Z,15.85
2023-03-26T06:09:42.599Z,15.95
2023-03-26T06:12:10.282Z,14.32
2023-03-26T06:14:38.134Z,13.93
2023-03-26T06:17:14.107Z,13.02
2023-03-26T06:19:59.180Z,11.35
2023-03-26T06:22:35.013Z,14.07
2023-03-26T06:25:27.256Z,10.75
2023-03-26T06:28:06.016Z,15.07
2023-03-26T06:31:01.718Z,13.50
2023-03-26T06:33:33.653Z,13.60
2023-03-26T06:36:00.428Z,11.88
2023-03-26T06:38:27.311Z,15.43
2023-03-26T06:40:54.173Z,13.00
2023-03-26T06:43:41.311Z,14.45
2023-03-26T06:46:33.891Z,13.13
2023-03-26T06:49:36.010Z,12.27
2023-03-26T06:52:21.280Z,11.15
2023-03-26T06:55:03.101Z,11.20
2023-03-26T06:57:50.773Z,11.05
2023-03-26T07:00:40.798Z,14.15
2023-03-26T07:03:25.806Z,9.77
2023-03-26T07:06:10.765Z,12.23
2023-03-26T07:09:12.375Z,14.88
2023-03-26T07:11:41.517Z,10.45
2023-03-26T07:14:27.951Z,11.70
2023-03-26T07:17:29.824Z,12.80
2023-03-26T07:20:13.109Z,14.65
2023-03-26T07:22:41.095Z,9.63
2023-03-26T07:25:27.609Z,13.38
2023-03-26T07:28:13.797Z,11.77
2023-03-26T07:31:11.230Z,12.00
2023-03-26T07:33:54.872Z,12.68
2023-03-26T07:36:43.407Z,14.05
2023-03-26T07:39:47.609Z,20.05
2023-03-26T07:42:46.166Z,17.33
2023-03-26T07:45:34.111Z,14.38
2023-03-26T07:48:37.594Z,17.60
2023-03-26T07:51:14.605Z,15.43
2023-03-26T07:54:09.917Z,16.02
2023-03-26T07:56:59.381Z,15.52
2023-03-26T08:00:09.975Z,17.77
2023-03-26T08:03:10.641Z,13.95
2023-03-26T08:06:19.030Z,18.10
2023-03-26T08:09:02.681Z,21.92
2023-03-26T08:11:51.207Z,18.15
2023-03-26T08:14:40.978Z,16.35
2023-03-26T08:17:13.193Z,18.85
2023-03-26T08:19:58.360Z,23.80
2023-03-26T08:22:27.716Z,16.35
2023-03-26T08:25:10.906Z,13.38
2023-03-26T08:27:43.568Z,10.50
2023-03-26T08:30:23.897Z,8.13
2023-03-26T08:32:58.736Z,9.15
2023-03-26T08:35:25.876Z,8.13
2023-03-26T08:37:53.200Z,11.05
2023-03-26T08:42:45.971Z,13.63
2023-03-26T08:45:12.644Z,8.20
2023-03-26T08:47:59.124Z,9.45
2023-03-26T08:50:44.522Z,8.93
2023-03-26T08:53:29.663Z,7.53
2023-03-26T08:56:12.976Z,8.40
2023-03-26T08:59:05.301Z,10.45
2023-03-26T09:01:50.616Z,9.05
2023-03-26T09:04:17.094Z,7.50
2023-03-26T09:07:13.189Z,10.50
2023-03-26T09:10:02.905Z,9.38
2023-03-26T09:12:32.366Z,9.93
2023-03-26T09:15:11.304Z,7.30
2023-03-26T09:17:58.242Z,8.65
2023-03-26T09:20:43.835Z,9.52
2023-03-26T09:25:41.495Z,9.70
2023-03-26T09:28:26.161Z,8.43
2023-03-26T09:30:58.257Z,7.93
2023-03-26T09:33:59.352Z,9.32
2023-03-26T09:36:38.455Z,14.23
2023-03-26T09:39:09.344Z,6.97
2023-03-26T09:41:41.141Z,7.43
2023-03-26T09:44:19.511Z,9.95
2023-03-26T09:46:48.939Z,7.45
2023-03-26T09:49:15.796Z,7.28
2023-03-26T09:51:45.197Z,7.88
2023-03-26T09:54:30.465Z,8.30
2023-03-26T09:57:07.988Z,7.10
2023-03-26T10:00:00.489Z,8.68
2023-03-26T10:02:46.067Z,8.95
2023-03-26T10:05:34.252Z,8.75
2023-03-26T10:08:01.428Z,17.48
2023-03-26T10:10:47.146Z,9.63
2023-03-26T10:13:25.622Z,11.15
2023-03-26T10:15:59.706Z,7.88
2023-03-26T10:18:44.645Z,6.68
2023-03-26T10:21:24.957Z,10.10
2023-03-26T10:24:10.997Z,7.95
2023-03-26T10:27:08.503Z,8.00
2023-03-26T10:29:36.023Z,6.80
2023-03-26T10:32:23.029Z,6.95
2023-03-26T10:34:53.232Z,13.70
2023-03-26T10:37:34.937Z,6.47
2023-03-26T10:40:10.123Z,7.50
2023-03-26T10:42:47.554Z,7.35
2023-03-26T10:45:21.359Z,6.05
2023-03-26T10:47:52.656Z,4.75
2023-03-26T10:50:37.241Z,6.47
2023-03-26T10:53:06.914Z,7.57
2023-03-26T10:55:40.735Z,5.28
2023-03-26T10:58:17.277Z,6.47
2023-03-26T11:00:46.930Z,7.00
2023-03-26T11:03:43.815Z,5.80
2023-03-26T11:06:28.903Z,7.70
2023-03-26T11:09:14.411Z,4.70
2023-03-26T11:11:52.022Z,4.85
2023-03-26T11:14:34.302Z,6.63
2023-03-26T11:17:04.224Z,6.32
2023-03-26T11:19:30.703Z,5.78
2023-03-26T11:22:03.644Z,6.47
2023-03-26T11:24:48.748Z,4.85
2023-03-26T11:27:24.958Z,5.43
2023-03-26T11:30:07.615Z,5.28
2023-03-26T11:32:39.233Z,6.43
2023-03-26T11:35:08.300Z,7.30
2023-03-26T11:37:47.516Z,5.82
2023-03-26T11:40:21.296Z,6.47
2023-03-26T11:42:48.824Z,6.78
2023-03-26T11:45:19.936Z,4.95
2023-03-26T11:47:52.239Z,5.63
2023-03-26T11:50:21.706Z,6.65
2023-03-26T11:52:49.298Z,4.75
2023-03-26T11:55:15.900Z,6.55
2023-03-26T11:57:45.487Z,6.20
2023-03-26T12:00:17.533Z,7.97
2023-03-26T12:02:44.945Z,5.90
2023-03-26T12:05:12.083Z,7.05
2023-03-26T12:07:45.734Z,6.07
2023-03-26T12:10:25.140Z,6.55
2023-03-26T12:12:56.916Z,5.80
2023-03-26T12:15:24.399Z,5.97
2023-03-26T12:17:56.511Z,8.02
2023-03-26T12:20:25.853Z,4.82
2023-03-26T12:22:53.646Z,5.18
2023-03-26T12:25:21.597Z,4.97
2023-03-26T12:27:49.800Z,6.07
2023-03-26T12:30:20.188Z,6.05
2023-03-26T12:32:47.587Z,6.75
2023-03-26T12:37:44.529Z,5.00
2023-03-26T12:40:29.988Z,9.20
2023-03-26T12:44:55.849Z,6.60
2023-03-26T12:45:44.488Z,4.88
2023-03-26T12:48:12.842Z,6.97
2023-03-26T12:50:42.738Z,5.95
2023-03-26T12:53:19.404Z,6.45
2023-03-26T12:55:46.376Z,6.47
2023-03-26T12:58:22.053Z,7.63
2023-03-26T13:01:02.903Z,6.57
2023-03-26T13:03:43.599Z,8.10
2023-03-26T13:06:16.074Z,6.28
2023-03-26T13:08:42.478Z,5.95
2023-03-26T13:11:31.567Z,5.43
2023-03-26T13:14:11.116Z,5.25
2023-03-26T13:16:40.723Z,6.85
2023-03-26T13:19:09.967Z,4.63
2023-03-26T13:21:36.980Z,11.45
2023-03-26T13:24:18.090Z,5.25
2023-03-26T13:26:54.647Z,9.20
2023-03-26T13:29:21.001Z,5.47
2023-03-26T13:32:04.805Z,7.28
2023-03-26T13:34:34.356Z,6.75
2023-03-26T13:37:24.038Z,8.02
2023-03-26T13:40:09.283Z,5.15
2023-03-26T13:42:39.276Z,5.30
2023-03-26T13:45:22.717Z,4.68
2023-03-26T13:47:50.493Z,5.47
2023-03-26T13:50:26.148Z,4.95
2023-03-26T13:52:53.111Z,3.70
2023-03-26T13:55:22.276Z,5.93
2023-03-26T13:57:55.130Z,5.82
2023-03-26T14:00:42.120Z,5.22
2023-03-26T14:03:13.328Z,6.40
2023-03-26T14:05:44.424Z,4.75
2023-03-26T14:08:14.920Z,6.25
2023-03-26T14:10:44.078Z,6.07
2023-03-26T14:13:10.691Z,7.03
2023-03-26T14:15:44.495Z,15.95
2023-03-26T14:18:30.261Z,4.80
2023-03-26T14:20:59.706Z,5.85
2023-03-26T14:23:29.232Z,9.80
2023-03-26T14:25:56.257Z,4.07
2023-03-26T14:28:28.983Z,5.20
2023-03-26T14:31:08.070Z,4.68
2023-03-26T14:33:40.817Z,5.65
2023-03-26T14:36:16.621Z,3.38
2023-03-26T14:39:01.615Z,4.93
2023-03-26T14:41:46.674Z,5.90
2023-03-26T14:44:48.216Z,5.22
2023-03-26T14:47:23.500Z,4.25
2023-03-26T14:49:59.057Z,3.70
2023-03-26T14:52:39.431Z,6.45
2023-03-26T14:55:12.813Z,3.90
2023-03-26T14:57:58.169Z,3.63
2023-03-26T15:00:24.675Z,5.28
2023-03-26T15:03:13.547Z,5.00
2023-03-26T15:05:58.846Z,5.22
2023-03-26T15:08:48.618Z,5.30
2023-03-26T15:11:34.162Z,4.82
2023-03-26T15:16:48.863Z,3.60
2023-03-26T15:19:30.606Z,4.10
2023-03-26T15:22:15.478Z,5.85
2023-03-26T15:25:05.146Z,4.35
2023-03-26T15:27:47.332Z,3.97
2023-03-26T15:30:16.783Z,4.57
2023-03-26T15:33:05.227Z,4.82
2023-03-26T15:35:31.795Z,3.83
2023-03-26T15:38:13.287Z,3.97
2023-03-26T15:40:59.870Z,5.10
2023-03-26T15:43:28.675Z,3.90
2023-03-26T15:46:17.870Z,4.25
2023-03-26T15:48:54.129Z,3.08
2023-03-26T15:51:31.411Z,4.05
2023-03-26T15:54:16.421Z,3.05
2023-03-26T15:56:42.838Z,3.97
2023-03-26T15:59:23.447Z,5.53
2023-03-26T16:02:03.730Z,3.67
2023-03-26T16:04:39.467Z,4.72
2023-03-26T16:07:39.042Z,5.88
2023-03-26T16:10:05.536Z,4.53
2023-03-26T16:12:34.024Z,5.55
2023-03-26T16:15:07.325Z,4.38
2023-03-26T16:17:54.691Z,2.40
2023-03-26T16:20:31.441Z,4.55
2023-03-26T16:23:03.483Z,2.78
2023-03-26T16:25:34.680Z,3.58
2023-03-26T16:28:12.976Z,4.45
2023-03-26T16:30:39.478Z,5.57
2023-03-26T16:33:12.680Z,3.95
2023-03-26T16:35:42.407Z,4.20
2023-03-26T16:38:14.506Z,5.55
2023-03-26T16:41:00.342Z,3.50
2023-03-26T16:43:39.376Z,4.22
2023-03-26T16:46:11.146Z,5.50
2023-03-26T16:48:41.564Z,5.43
2023-03-26T16:51:16.965Z,7.10
2023-03-26T16:54:02.382Z,4.30
2023-03-26T16:56:33.862Z,4.70
2023-03-26T16:59:06.309Z,5.15
2023-03-26T17:01:42.837Z,4.00
2023-03-26T17:04:20.497Z,5.68
2023-03-26T17:07:13.620Z,3.47
2023-03-26T17:09:44.005Z,6.32
2023-03-26T17:12:20.026Z,3.88
2023-03-26T17:14:55.684Z,4.68
2023-03-26T17:17:31.441Z,5.03
2023-03-26T17:20:16.598Z,3.20
2023-03-26T17:22:46.122Z,4.50
2023-03-26T17:25:34.903Z,3.88
2023-03-26T17:28:20.638Z,5.53
2023-03-26T17:31:05.731Z,4.47
2023-03-26T17:33:34.677Z,3.53
2023-03-26T17:36:13.129Z,5.05
2023-03-26T17:38:39.591Z,5.43
2023-03-26T17:41:07.311Z,3.70
2023-03-26T17:43:36.333Z,5.18
2023-03-26T17:46:04.473Z,4.90
2023-03-26T17:48:35.384Z,4.07
2023-03-26T17:51:03.976Z,5.43
2023-03-26T17:53:31.595Z,5.72
2023-03-26T17:56:03.154Z,4.15
2023-03-26T17:58:29.540Z,5.43
2023-03-26T18:01:03.292Z,4.28
2023-03-26T18:03:34.061Z,5.40
2023-03-26T18:06:05.378Z,6.20
2023-03-26T18:08:37.619Z,4.97
2023-03-26T18:11:08.019Z,5.85
2023-03-26T18:13:53.232Z,5.47
2023-03-26T18:16:20.863Z,5.25
2023-03-26T18:18:51.667Z,5.25
2023-03-26T18:21:23.933Z,5.38
2023-03-26T18:23:51.125Z,4.30
2023-03-26T18:26:32.031Z,5.57
2023-03-26T18:29:13.435Z,5.90
2023-03-26T18:31:43.514Z,5.25
2023-03-26T18:34:15.050Z,5.78
2023-03-26T18:36:41.533Z,4.65
2023-03-26T18:39:11.726Z,4.97
2023-03-26T18:41:41.634Z,7.15
2023-03-26T18:44:13.176Z,5.65
2023-03-26T18:46:39.638Z,4.85
2023-03-26T18:49:07.021Z,5.32
2023-03-26T18:51:38.286Z,5.05
2023-03-26T18:54:13.136Z,4.13
2023-03-26T18:56:41.703Z,5.22
2023-03-26T18:59:32.567Z,4.53
2023-03-26T19:02:02.346Z,6.20
2023-03-26T19:04:31.739Z,5.35
2023-03-26T19:06:58.382Z,6.95
2023-03-26T19:09:31.948Z,6.75
2023-03-26T19:12:04.446Z,4.57
2023-03-26T19:14:35.277Z,5.60
2023-03-26T19:17:03.488Z,4.80
2023-03-26T19:19:32.060Z,5.32
2023-03-26T19:21:59.718Z,4.55
2023-03-26T19:24:26.997Z,4.70
2023-03-26T19:26:53.550Z,5.43
2023-03-26T19:29:27.167Z,4.63
2023-03-26T19:32:00.883Z,4.22
2023-03-26T19:34:39.678Z,5.00
2023-03-26T19:37:25.668Z,3.78
2023-03-26T19:40:01.293Z,5.13
2023-03-26T19:42:43.353Z,4.72
2023-03-26T19:45:15.803Z,3.70
2023-03-26T19:47:48.592Z,5.10
2023-03-26T19:50:29.288Z,5.70
2023-03-26T19:53:15.342Z,6.00
2023-03-26T19:55:52.319Z,4.55
2023-03-26T19:58:19.636Z,5.50
2023-03-26T20:00:46.094Z,5.47
2023-03-26T20:03:12.680Z,5.00
2023-03-26T20:05:39.152Z,4.30
2023-03-26T20:08:13.385Z,4.88
2023-03-26T20:10:39.904Z,4.05
2023-03-26T20:13:24.649Z,2.92
2023-03-26T20:16:05.815Z,4.15
2023-03-26T20:18:33.763Z,5.30
2023-03-26T20:21:00.510Z,6.00
2023-03-26T20:23:29.042Z,4.63
2023-03-26T20:25:55.887Z,4.82
2023-03-26T20:28:24.317Z,5.25
2023-03-26T20:30:51.667Z,3.63
2023-03-26T20:33:20.284Z,4.97
2023-03-26T20:35:47.292Z,5.07
2023-03-26T20:38:13.817Z,5.43
2023-03-26T20:40:40.480Z,5.35
2023-03-26T20:43:12.051Z,4.03
2023-03-26T20:45:38.727Z,4.82
2023-03-26T20:48:05.252Z,4.75
2023-03-26T20:50:35.693Z,5.10
2023-03-26T20:53:02.324Z,3.67
2023-03-26T20:55:28.831Z,3.75
2023-03-26T20:57:55.324Z,4.45
2023-03-26T21:00:24.837Z,4.90
2023-03-26T21:02:55.836Z,4.80
2023-03-26T21:05:26.837Z,4.18
2023-03-26T21:07:53.967Z,4.00
2023-03-26T21:10:20.905Z,3.60
2023-03-26T21:12:50.622Z,4.47
2023-03-26T21:15:23.395Z,3.92
2023-03-26T21:17:51.599Z,4.82
2023-03-26T21:20:18.871Z,5.05
2023-03-26T21:22:46.279Z,2.83
2023-03-26T21:25:21.775Z,7.25
2023-03-26T21:27:51.519Z,12.05
2023-03-26T21:30:18.143Z,8.25
2023-03-26T21:32:45.671Z,5.55
2023-03-26T21:35:16.407Z,6.78
2023-03-26T21:37:44.377Z,5.13
2023-03-26T21:40:14.816Z,7.60
2023-03-26T21:42:42.081Z,10.95
2023-03-26T21:45:08.777Z,12.05
2023-03-26T21:47:35.408Z,8.65
2023-03-26T21:50:02.332Z,5.95
2023-03-26T21:52:30.098Z,5.90
2023-03-26T21:54:58.085Z,3.67
2023-03-26T21:57:34.979Z,6.85
2023-03-26T22:00:14.916Z,5.82
2023-03-26T22:02:48.095Z,6.82
2023-03-26T22:05:16.221Z,9.60
2023-03-26T22:07:42.586Z,9.80
2023-03-26T22:10:09.071Z,10.32
2023-03-26T22:12:35.970Z,7.13
2023-03-26T22:15:04.512Z,5.18
2023-03-26T22:17:32.946Z,12.18
2023-03-26T22:20:01.186Z,11.68
2023-03-26T22:22:28.595Z,6.20
2023-03-26T22:24:55.066Z,6.93
2023-03-26T22:27:21.547Z,6.18
2023-03-26T22:29:48.215Z,4.78
2023-03-26T22:32:14.745Z,5.55
2023-03-26T22:34:41.903Z,3.22
2023-03-26T22:37:08.342Z,6.90
2023-03-26T22:39:34.881Z,5.93
2023-03-26T22:42:03.732Z,4.32
2023-03-26T22:44:30.302Z,4.35
2023-03-26T22:46:56.960Z,5.85
2023-03-26T22:49:26.073Z,4.05
2023-03-26T22:51:52.882Z,4.82
2023-03-26T22:54:19.350Z,4.15
2023-03-26T22:56:45.862Z,8.60
2023-03-26T22:59:13.139Z,4.38
2023-03-26T23:01:39.961Z,8.07
2023-03-26T23:04:07.008Z,14.88
2023-03-26T23:06:33.556Z,5.75
2023-03-26T23:08:59.937Z,6.85
2023-03-26T23:11:26.727Z,6.35
2023-03-26T23:13:53.135Z,5.03
2023-03-26T23:16:21.466Z,6.18
2023-03-26T23:18:48.348Z,4.45
2023-03-26T23:21:16.031Z,4.30
2023-03-26T23:23:42.767Z,10.23
2023-03-26T23:26:09.631Z,5.30
2023-03-26T23:28:36.287Z,17.65
2023-03-26T23:31:04.364Z,31.83
2023-03-26T23:33:32.099Z,14.15
2023-03-26T23:35:59.954Z,9.40
2023-03-26T23:38:29.045Z,10.15
2023-03-26T23:41:10.125Z,8.75
2023-03-26T23:43:39.614Z,9.20
2023-03-26T23:46:23.754Z,5.60
2023-03-26T23:48:54.880Z,6.95
2023-03-26T23:51:22.262Z,4.57
2023-03-26T23:53:49.301Z,6.88
2023-03-26T23:56:16.290Z,4.20
2023-03-26T23:58:42.975Z,6.55
